Catalina Duchess — WDD2049 — position and weather

sailwx.info

Track history (hours):
 
Tides and Currents Weather Stations Pressure Air Temp Water Temp Dewpoint Dewpoint Depression Visibility Wind Speed Wind Dir Waves Ship Positions

Catalina Duchess

Owner: CATALINA CLASSIC CRUISES, INC., SAN DIEGO, CA. More information available from US FCC via Universal Licensing System and Coast Guard Vessel Documentation Center.

Last reported at 2017-Sep-18 22:00 UTC. Time now 2017-Sep-22 20:50 UTC.
Position N 33°45' W 118°12'.

Length 31 m; draft 2.5 m.

Type: Ship. MMSI: 367110260.

Date/timePositionNaut miles runAvg speedWind from/ knotsBaromVisibWave heightAir tempDewpointWater temp
2017-Sep-18 22:00N 33°45' W 118°12'0 0.0
2017-Sep-18 21:30N 33°45' W 118°12'4 8.3
2017-Sep-18 21:00N 33°41' W 118°11'1713.7
2017-Sep-18 19:48N 33°26' W 118°20'8 3.7
2017-Sep-18 17:33N 33°35' W 118°21'412.8
2017-Sep-18 17:15N 33°37' W 118°17'312.8
2017-Sep-18 17:00N 33°40' W 118°15'612.0
2017-Sep-18 16:29N 33°45' W 118°11'0 0.6
2017-Sep-18 16:00N 33°45' W 118°12'0 0.0
2017-Sep-18 15:31N 33°45' W 118°12'0 0.0
2017-Sep-17 22:39N 33°45' W 118°12'0 0.0
2017-Sep-17 22:30N 33°45' W 118°12'0 0.0
2017-Sep-17 22:00N 33°45' W 118°12'4 8.3
2017-Sep-17 21:30N 33°41' W 118°11'3 0.6
2017-Sep-17 17:03N 33°38' W 118°13'113.3
2017-Sep-17 16:59N 33°39' W 118°12'6 0.2
2017-Sep-16 03:50N 33°45' W 118°12'2 7.0
2017-Sep-16 03:30N 33°43' W 118°11'612.6
2017-Sep-16 03:00N 33°38' W 118°15'1213.9
2017-Sep-16 02:08N 33°30' W 118°26'213.9
2017-Sep-16 02:00N 33°29' W 118°28'15 7.2
2017-Sep-15 23:59N 33°39' W 118°15'612.2
2017-Sep-15 23:30N 33°43' W 118°11'2 3.6
2017-Sep-15 23:00N 33°45' W 118°12'0 0.0
2017-Sep-15 22:30N 33°45' W 118°12'2 4.4
2017-Sep-15 22:00N 33°43' W 118°11'612.5
2017-Sep-15 21:31N 33°38' W 118°16'2 0.8
2017-Sep-15 18:25N 33°40' W 118°14'512.9
2017-Sep-15 18:00N 33°45' W 118°11'1 1.1
2017-Sep-15 17:30N 33°45' W 118°12'4 0.1
2017-Sep-13 20:32N 33°42' W 118°11'111.6
2017-Sep-13 20:30N 33°41' W 118°11'713.1
2017-Sep-13 19:59N 33°36' W 118°17'4 1.8
2017-Sep-13 17:41N 33°34' W 118°21'312.8
2017-Sep-13 17:26N 33°37' W 118°19'512.3
2017-Sep-13 17:00N 33°40' W 118°14'511.0
2017-Sep-13 16:30N 33°45' W 118°11'0 0.7
2017-Sep-13 15:59N 33°45' W 118°12'0 0.0
2017-Sep-13 15:30N 33°45' W 118°12'  
2017-Sep-09 05:20N 33°45' W 118°12'2 6.4
2017-Sep-09 05:00N 33°43' W 118°11'613.1
2017-Sep-09 04:30N 33°37' W 118°14'713.4
2017-Sep-09 04:00N 33°31' W 118°18'713.6
2017-Sep-09 03:30N 33°25' W 118°21'1 2.1
2017-Sep-09 03:00N 33°24' W 118°22'611.6
2017-Sep-09 02:31N 33°29' W 118°19'713.2
2017-Sep-09 02:01N 33°35' W 118°16'612.9
2017-Sep-09 01:31N 33°41' W 118°12'4 8.1
2017-Sep-09 01:00N 33°45' W 118°12'  
Track history (hours):
 
Tides and Currents Weather Stations Pressure Air Temp Water Temp Dewpoint Dewpoint Depression Visibility Wind Speed Wind Dir Waves Ship Positions

Catalina Duchess

Owner: CATALINA CLASSIC CRUISES, INC., SAN DIEGO, CA. More information available from US FCC via Universal Licensing System and Coast Guard Vessel Documentation Center.

Last reported at 2017-Sep-18 22:00 UTC. Time now 2017-Sep-22 20:50 UTC.
Position N 33°45' W 118°12'.

Length 31 m; draft 2.5 m.

Type: Ship. MMSI: 367110260.

Date/timePositionNaut miles runAvg speedWind from/ knotsBaromVisibWave heightAir tempDewpointWater temp
2017-Sep-18 22:00N 33°45' W 118°12'0 0.0
2017-Sep-18 21:30N 33°45' W 118°12'4 8.3
2017-Sep-18 21:00N 33°41' W 118°11'1713.7
2017-Sep-18 19:48N 33°26' W 118°20'8 3.7
2017-Sep-18 17:33N 33°35' W 118°21'412.8
2017-Sep-18 17:15N 33°37' W 118°17'312.8
2017-Sep-18 17:00N 33°40' W 118°15'612.0
2017-Sep-18 16:29N 33°45' W 118°11'0 0.6
2017-Sep-18 16:00N 33°45' W 118°12'0 0.0
2017-Sep-18 15:31N 33°45' W 118°12'0 0.0
2017-Sep-17 22:39N 33°45' W 118°12'0 0.0
2017-Sep-17 22:30N 33°45' W 118°12'0 0.0
2017-Sep-17 22:00N 33°45' W 118°12'4 8.3
2017-Sep-17 21:30N 33°41' W 118°11'3 0.6
2017-Sep-17 17:03N 33°38' W 118°13'113.3
2017-Sep-17 16:59N 33°39' W 118°12'6 0.2
2017-Sep-16 03:50N 33°45' W 118°12'2 7.0
2017-Sep-16 03:30N 33°43' W 118°11'612.6
2017-Sep-16 03:00N 33°38' W 118°15'1213.9
2017-Sep-16 02:08N 33°30' W 118°26'213.9
2017-Sep-16 02:00N 33°29' W 118°28'15 7.2
2017-Sep-15 23:59N 33°39' W 118°15'612.2
2017-Sep-15 23:30N 33°43' W 118°11'2 3.6
2017-Sep-15 23:00N 33°45' W 118°12'0 0.0
2017-Sep-15 22:30N 33°45' W 118°12'2 4.4
2017-Sep-15 22:00N 33°43' W 118°11'612.5
2017-Sep-15 21:31N 33°38' W 118°16'2 0.8
2017-Sep-15 18:25N 33°40' W 118°14'512.9
2017-Sep-15 18:00N 33°45' W 118°11'1 1.1
2017-Sep-15 17:30N 33°45' W 118°12'4 0.1
2017-Sep-13 20:32N 33°42' W 118°11'111.6
2017-Sep-13 20:30N 33°41' W 118°11'713.1
2017-Sep-13 19:59N 33°36' W 118°17'4 1.8
2017-Sep-13 17:41N 33°34' W 118°21'312.8
2017-Sep-13 17:26N 33°37' W 118°19'512.3
2017-Sep-13 17:00N 33°40' W 118°14'511.0
2017-Sep-13 16:30N 33°45' W 118°11'0 0.7
2017-Sep-13 15:59N 33°45' W 118°12'0 0.0
2017-Sep-13 15:30N 33°45' W 118°12'  
2017-Sep-09 05:20N 33°45' W 118°12'2 6.4
2017-Sep-09 05:00N 33°43' W 118°11'613.1
2017-Sep-09 04:30N 33°37' W 118°14'713.4
2017-Sep-09 04:00N 33°31' W 118°18'713.6
2017-Sep-09 03:30N 33°25' W 118°21'1 2.1
2017-Sep-09 03:00N 33°24' W 118°22'611.6
2017-Sep-09 02:31N 33°29' W 118°19'713.2
2017-Sep-09 02:01N 33°35' W 118°16'612.9
2017-Sep-09 01:31N 33°41' W 118°12'4 8.1
2017-Sep-09 01:00N 33°45' W 118°12'  

Dump ship's entire track history